sensor_id;sensor_type;location;lat;lon;timestamp;P1;durP1;ratioP1;P2;durP2;ratioP2
57800;SDS011;43627;42.728;23.256;2023-03-01T00:01:14;7.57;;;4.13;;
57800;SDS011;43627;42.728;23.256;2023-03-01T00:03:44;6.75;;;4.15;;
57800;SDS011;43627;42.728;23.256;2023-03-01T00:06:11;7.25;;;4.25;;
57800;SDS011;43627;42.728;23.256;2023-03-01T00:08:39;6.95;;;4.57;;
57800;SDS011;43627;42.728;23.256;2023-03-01T00:11:16;8.13;;;4.90;;
57800;SDS011;43627;42.728;23.256;2023-03-01T00:13:46;4.60;;;2.65;;
57800;SDS011;43627;42.728;23.256;2023-03-01T00:16:18;6.45;;;3.95;;
57800;SDS011;43627;42.728;23.256;2023-03-01T00:18:49;4.10;;;2.72;;
57800;SDS011;43627;42.728;23.256;2023-03-01T00:21:17;6.57;;;3.28;;
57800;SDS011;43627;42.728;23.256;2023-03-01T00:23:43;6.50;;;3.45;;
57800;SDS011;43627;42.728;23.256;2023-03-01T00:26:11;3.70;;;2.63;;
57800;SDS011;43627;42.728;23.256;2023-03-01T00:28:39;4.78;;;2.83;;
57800;SDS011;43627;42.728;23.256;2023-03-01T00:31:11;5.85;;;3.63;;
57800;SDS011;43627;42.728;23.256;2023-03-01T00:33:40;6.45;;;2.47;;
57800;SDS011;43627;42.728;23.256;2023-03-01T00:36:07;3.08;;;2.05;;
57800;SDS011;43627;42.728;23.256;2023-03-01T00:38:35;4.28;;;2.80;;
57800;SDS011;43627;42.728;23.256;2023-03-01T00:41:06;3.20;;;2.33;;
57800;SDS011;43627;42.728;23.256;2023-03-01T00:43:34;4.57;;;2.28;;
57800;SDS011;43627;42.728;23.256;2023-03-01T00:46:04;3.17;;;2.20;;
57800;SDS011;43627;42.728;23.256;2023-03-01T00:48:33;4.90;;;2.60;;
57800;SDS011;43627;42.728;23.256;2023-03-01T00:51:04;2.92;;;2.03;;
57800;SDS011;43627;42.728;23.256;2023-03-01T00:53:32;4.70;;;2.33;;
57800;SDS011;43627;42.728;23.256;2023-03-01T00:55:59;3.17;;;2.28;;
57800;SDS011;43627;42.728;23.256;2023-03-01T00:58:26;4.80;;;2.80;;
57800;SDS011;43627;42.728;23.256;2023-03-01T01:00:53;3.30;;;2.42;;
57800;SDS011;43627;42.728;23.256;2023-03-01T01:03:19;5.38;;;2.78;;
57800;SDS011;43627;42.728;23.256;2023-03-01T01:05:46;3.90;;;2.13;;
57800;SDS011;43627;42.728;23.256;2023-03-01T01:08:12;3.45;;;2.22;;
57800;SDS011;43627;42.728;23.256;2023-03-01T01:10:39;4.55;;;2.60;;
57800;SDS011;43627;42.728;23.256;2023-03-01T01:13:06;3.85;;;2.85;;
57800;SDS011;43627;42.728;23.256;2023-03-01T01:15:33;5.18;;;3.15;;
57800;SDS011;43627;42.728;23.256;2023-03-01T01:18:01;5.20;;;2.90;;
57800;SDS011;43627;42.728;23.256;2023-03-01T01:20:28;5.55;;;2.97;;
57800;SDS011;43627;42.728;23.256;2023-03-01T01:22:55;3.60;;;2.15;;
57800;SDS011;43627;42.728;23.256;2023-03-01T01:25:21;3.83;;;2.25;;
57800;SDS011;43627;42.728;23.256;2023-03-01T01:27:51;5.55;;;2.67;;
57800;SDS011;43627;42.728;23.256;2023-03-01T01:30:17;4.43;;;2.45;;
57800;SDS011;43627;42.728;23.256;2023-03-01T01:32:44;3.72;;;2.33;;
57800;SDS011;43627;42.728;23.256;2023-03-01T01:35:11;3.88;;;2.03;;
57800;SDS011;43627;42.728;23.256;2023-03-01T01:37:37;3.60;;;2.20;;
57800;SDS011;43627;42.728;23.256;2023-03-01T01:40:04;3.35;;;2.22;;
57800;SDS011;43627;42.728;23.256;2023-03-01T01:42:31;3.22;;;1.98;;
57800;SDS011;43627;42.728;23.256;2023-03-01T01:47:55;2.88;;;2.03;;
57800;SDS011;43627;42.728;23.256;2023-03-01T01:50:27;2.60;;;1.70;;
57800;SDS011;43627;42.728;23.256;2023-03-01T01:53:10;1.95;;;1.75;;
57800;SDS011;43627;42.728;23.256;2023-03-01T01:55:42;2.17;;;1.83;;
57800;SDS011;43627;42.728;23.256;2023-03-01T01:58:12;3.25;;;1.90;;
57800;SDS011;43627;42.728;23.256;2023-03-01T02:00:44;3.03;;;2.15;;
57800;SDS011;43627;42.728;23.256;2023-03-01T02:03:12;3.90;;;2.30;;
57800;SDS011;43627;42.728;23.256;2023-03-01T02:08:33;2.75;;;1.70;;
57800;SDS011;43627;42.728;23.256;2023-03-01T02:11:04;2.53;;;1.98;;
57800;SDS011;43627;42.728;23.256;2023-03-01T02:13:32;1.90;;;1.33;;
57800;SDS011;43627;42.728;23.256;2023-03-01T02:16:04;2.22;;;1.42;;
57800;SDS011;43627;42.728;23.256;2023-03-01T02:18:34;3.30;;;1.35;;
57800;SDS011;43627;42.728;23.256;2023-03-01T02:23:56;5.05;;;2.83;;
57800;SDS011;43627;42.728;23.256;2023-03-01T02:29:14;3.10;;;2.15;;
57800;SDS011;43627;42.728;23.256;2023-03-01T02:31:41;4.63;;;2.80;;
57800;SDS011;43627;42.728;23.256;2023-03-01T02:34:09;3.42;;;1.80;;
57800;SDS011;43627;42.728;23.256;2023-03-01T02:36:45;2.22;;;1.65;;
57800;SDS011;43627;42.728;23.256;2023-03-01T02:39:17;2.75;;;1.80;;
57800;SDS011;43627;42.728;23.256;2023-03-01T02:41:48;2.78;;;2.13;;
57800;SDS011;43627;42.728;23.256;2023-03-01T02:44:18;3.08;;;2.38;;
57800;SDS011;43627;42.728;23.256;2023-03-01T02:46:47;2.88;;;2.05;;
57800;SDS011;43627;42.728;23.256;2023-03-01T02:52:04;3.17;;;1.90;;
57800;SDS011;43627;42.728;23.256;2023-03-01T02:54:44;3.03;;;1.75;;
57800;SDS011;43627;42.728;23.256;2023-03-01T02:57:45;2.63;;;1.60;;
57800;SDS011;43627;42.728;23.256;2023-03-01T03:00:21;2.72;;;1.60;;
57800;SDS011;43627;42.728;23.256;2023-03-01T03:02:51;2.90;;;1.00;;
57800;SDS011;43627;42.728;23.256;2023-03-01T03:05:22;1.70;;;1.20;;
57800;SDS011;43627;42.728;23.256;2023-03-01T03:07:50;1.90;;;1.23;;
57800;SDS011;43627;42.728;23.256;2023-03-01T03:10:19;1.38;;;1.15;;
57800;SDS011;43627;42.728;23.256;2023-03-01T03:15:20;1.88;;;1.20;;
57800;SDS011;43627;42.728;23.256;2023-03-01T03:17:48;1.85;;;1.20;;
57800;SDS011;43627;42.728;23.256;2023-03-01T03:22:46;2.42;;;1.67;;
57800;SDS011;43627;42.728;23.256;2023-03-01T03:25:15;2.38;;;1.70;;
57800;SDS011;43627;42.728;23.256;2023-03-01T03:27:43;2.75;;;1.70;;
57800;SDS011;43627;42.728;23.256;2023-03-01T03:30:13;2.08;;;1.55;;
57800;SDS011;43627;42.728;23.256;2023-03-01T03:32:43;3.38;;;2.10;;
57800;SDS011;43627;42.728;23.256;2023-03-01T03:35:23;3.25;;;1.98;;
57800;SDS011;43627;42.728;23.256;2023-03-01T03:37:57;3.08;;;2.10;;
57800;SDS011;43627;42.728;23.256;2023-03-01T03:40:47;2.75;;;1.70;;
57800;SDS011;43627;42.728;23.256;2023-03-01T03:43:19;4.03;;;2.53;;
57800;SDS011;43627;42.728;23.256;2023-03-01T03:45:48;3.35;;;2.33;;
57800;SDS011;43627;42.728;23.256;2023-03-01T03:48:17;2.72;;;2.08;;
57800;SDS011;43627;42.728;23.256;2023-03-01T03:50:48;2.97;;;2.17;;
57800;SDS011;43627;42.728;23.256;2023-03-01T03:53:18;6.10;;;2.38;;
57800;SDS011;43627;42.728;23.256;2023-03-01T03:55:46;4.35;;;2.35;;
57800;SDS011;43627;42.728;23.256;2023-03-01T03:58:49;2.90;;;1.60;;
57800;SDS011;43627;42.728;23.256;2023-03-01T04:01:15;0.80;;;0.70;;
57800;SDS011;43627;42.728;23.256;2023-03-01T04:04:01;0.98;;;0.65;;
57800;SDS011;43627;42.728;23.256;2023-03-01T04:06:30;1.88;;;0.70;;
57800;SDS011;43627;42.728;23.256;2023-03-01T04:08:57;2.10;;;1.05;;
57800;SDS011;43627;42.728;23.256;2023-03-01T04:11:28;1.88;;;0.82;;
57800;SDS011;43627;42.728;23.256;2023-03-01T04:13:56;0.90;;;0.60;;
57800;SDS011;43627;42.728;23.256;2023-03-01T04:16:24;1.08;;;0.55;;
57800;SDS011;43627;42.728;23.256;2023-03-01T04:18:52;1.45;;;0.68;;
57800;SDS011;43627;42.728;23.256;2023-03-01T04:21:19;1.08;;;0.70;;
57800;SDS011;43627;42.728;23.256;2023-03-01T04:23:46;1.23;;;0.70;;
57800;SDS011;43627;42.728;23.256;2023-03-01T04:26:13;3.10;;;0.98;;
57800;SDS011;43627;42.728;23.256;2023-03-01T04:28:40;1.13;;;0.70;;
57800;SDS011;43627;42.728;23.256;2023-03-01T04:31:13;1.17;;;0.75;;
57800;SDS011;43627;42.728;23.256;2023-03-01T04:33:45;1.10;;;0.60;;
57800;SDS011;43627;42.728;23.256;2023-03-01T04:36:15;1.55;;;0.52;;
57800;SDS011;43627;42.728;23.256;2023-03-01T04:38:43;1.58;;;0.70;;
57800;SDS011;43627;42.728;23.256;2023-03-01T04:41:14;1.55;;;0.85;;
57800;SDS011;43627;42.728;23.256;2023-03-01T04:43:43;1.15;;;0.93;;
57800;SDS011;43627;42.728;23.256;2023-03-01T04:46:11;1.38;;;1.00;;
57800;SDS011;43627;42.728;23.256;2023-03-01T04:48:41;1.75;;;1.23;;
57800;SDS011;43627;42.728;23.256;2023-03-01T04:51:09;1.13;;;0.70;;
57800;SDS011;43627;42.728;23.256;2023-03-01T04:53:39;1.08;;;0.60;;
57800;SDS011;43627;42.728;23.256;2023-03-01T04:56:08;1.50;;;0.90;;
57800;SDS011;43627;42.728;23.256;2023-03-01T04:58:35;2.08;;;0.82;;
57800;SDS011;43627;42.728;23.256;2023-03-01T05:01:07;2.63;;;0.80;;
57800;SDS011;43627;42.728;23.256;2023-03-01T05:03:45;3.08;;;1.00;;
57800;SDS011;43627;42.728;23.256;2023-03-01T05:06:14;0.70;;;0.70;;
57800;SDS011;43627;42.728;23.256;2023-03-01T05:08:42;1.73;;;0.95;;
57800;SDS011;43627;42.728;23.256;2023-03-01T05:11:10;3.28;;;1.35;;
57800;SDS011;43627;42.728;23.256;2023-03-01T05:13:38;1.52;;;0.82;;
57800;SDS011;43627;42.728;23.256;2023-03-01T05:16:05;1.00;;;0.82;;
57800;SDS011;43627;42.728;23.256;2023-03-01T05:18:33;2.15;;;0.95;;
57800;SDS011;43627;42.728;23.256;2023-03-01T05:21:02;3.25;;;0.68;;
57800;SDS011;43627;42.728;23.256;2023-03-01T05:23:31;1.83;;;0.70;;
57800;SDS011;43627;42.728;23.256;2023-03-01T05:25:59;5.60;;;0.95;;
57800;SDS011;43627;42.728;23.256;2023-03-01T05:28:27;3.95;;;0.90;;
57800;SDS011;43627;42.728;23.256;2023-03-01T05:30:54;0.73;;;0.63;;
57800;SDS011;43627;42.728;23.256;2023-03-01T05:33:21;1.30;;;0.90;;
57800;SDS011;43627;42.728;23.256;2023-03-01T05:35:49;4.47;;;1.25;;
57800;SDS011;43627;42.728;23.256;2023-03-01T05:38:18;2.08;;;1.60;;
57800;SDS011;43627;42.728;23.256;2023-03-01T05:40:46;6.55;;;1.75;;
57800;SDS011;43627;42.728;23.256;2023-03-01T05:43:15;2.92;;;2.20;;
57800;SDS011;43627;42.728;23.256;2023-03-01T05:45:42;5.47;;;2.17;;
57800;SDS011;43627;42.728;23.256;2023-03-01T05:48:13;2.65;;;1.80;;
57800;SDS011;43627;42.728;23.256;2023-03-01T05:50:41;2.95;;;1.80;;
57800;SDS011;43627;42.728;23.256;2023-03-01T05:53:16;7.60;;;2.72;;
57800;SDS011;43627;42.728;23.256;2023-03-01T05:55:47;4.95;;;2.42;;
57800;SDS011;43627;42.728;23.256;2023-03-01T05:58:17;4.43;;;2.13;;
57800;SDS011;43627;42.728;23.256;2023-03-01T06:00:46;3.90;;;2.58;;
57800;SDS011;43627;42.728;23.256;2023-03-01T06:03:23;5.40;;;2.75;;
57800;SDS011;43627;42.728;23.256;2023-03-01T06:05:50;8.95;;;3.85;;
57800;SDS011;43627;42.728;23.256;2023-03-01T06:08:22;4.07;;;2.67;;
57800;SDS011;43627;42.728;23.256;2023-03-01T06:10:50;8.85;;;3.35;;
57800;SDS011;43627;42.728;23.256;2023-03-01T06:13:18;5.05;;;2.03;;
57800;SDS011;43627;42.728;23.256;2023-03-01T06:15:45;3.70;;;2.60;;
57800;SDS011;43627;42.728;23.256;2023-03-01T06:18:13;8.48;;;4.13;;
57800;SDS011;43627;42.728;23.256;2023-03-01T06:20:42;10.13;;;4.20;;
57800;SDS011;43627;42.728;23.256;2023-03-01T06:23:23;5.65;;;3.08;;
57800;SDS011;43627;42.728;23.256;2023-03-01T06:25:52;7.60;;;4.93;;
57800;SDS011;43627;42.728;23.256;2023-03-01T06:28:19;10.43;;;4.95;;
57800;SDS011;43627;42.728;23.256;2023-03-01T06:30:47;9.32;;;4.85;;
57800;SDS011;43627;42.728;23.256;2023-03-01T06:33:14;6.85;;;4.07;;
57800;SDS011;43627;42.728;23.256;2023-03-01T06:35:40;12.80;;;6.55;;
57800;SDS011;43627;42.728;23.256;2023-03-01T06:38:07;10.02;;;6.05;;
57800;SDS011;43627;42.728;23.256;2023-03-01T06:40:35;8.55;;;4.50;;
57800;SDS011;43627;42.728;23.256;2023-03-01T06:43:02;7.53;;;5.30;;
57800;SDS011;43627;42.728;23.256;2023-03-01T06:45:30;6.57;;;4.20;;
57800;SDS011;43627;42.728;23.256;2023-03-01T06:48:04;10.68;;;5.93;;
57800;SDS011;43627;42.728;23.256;2023-03-01T06:50:33;12.63;;;5.72;;
57800;SDS011;43627;42.728;23.256;2023-03-01T06:53:02;12.85;;;5.60;;
57800;SDS011;43627;42.728;23.256;2023-03-01T06:55:32;16.38;;;4.82;;
57800;SDS011;43627;42.728;23.256;2023-03-01T06:58:00;21.80;;;10.07;;
57800;SDS011;43627;42.728;23.256;2023-03-01T07:00:29;11.98;;;6.80;;
57800;SDS011;43627;42.728;23.256;2023-03-01T07:02:58;15.77;;;5.13;;
57800;SDS011;43627;42.728;23.256;2023-03-01T07:05:26;8.95;;;4.68;;
57800;SDS011;43627;42.728;23.256;2023-03-01T07:07:56;4.05;;;2.63;;
57800;SDS011;43627;42.728;23.256;2023-03-01T07:10:23;9.00;;;5.70;;
57800;SDS011;43627;42.728;23.256;2023-03-01T07:12:50;10.38;;;4.07;;
57800;SDS011;43627;42.728;23.256;2023-03-01T07:15:20;13.88;;;7.22;;
57800;SDS011;43627;42.728;23.256;2023-03-01T07:17:47;23.77;;;5.63;;
57800;SDS011;43627;42.728;23.256;2023-03-01T07:20:17;7.90;;;3.53;;
57800;SDS011;43627;42.728;23.256;2023-03-01T07:22:45;4.45;;;2.70;;
57800;SDS011;43627;42.728;23.256;2023-03-01T07:25:11;5.30;;;3.17;;
57800;SDS011;43627;42.728;23.256;2023-03-01T07:27:38;11.02;;;3.38;;
57800;SDS011;43627;42.728;23.256;2023-03-01T07:30:05;6.70;;;2.55;;
57800;SDS011;43627;42.728;23.256;2023-03-01T07:32:32;3.72;;;1.85;;
57800;SDS011;43627;42.728;23.256;2023-03-01T07:34:59;9.43;;;3.50;;
57800;SDS011;43627;42.728;23.256;2023-03-01T07:37:26;8.80;;;2.97;;
57800;SDS011;43627;42.728;23.256;2023-03-01T07:39:53;7.28;;;3.40;;
57800;SDS011;43627;42.728;23.256;2023-03-01T07:42:19;5.38;;;2.85;;
57800;SDS011;43627;42.728;23.256;2023-03-01T07:44:47;7.30;;;2.95;;
57800;SDS011;43627;42.728;23.256;2023-03-01T07:47:13;13.50;;;3.83;;
57800;SDS011;43627;42.728;23.256;2023-03-01T07:49:40;12.65;;;4.43;;
57800;SDS011;43627;42.728;23.256;2023-03-01T07:52:09;6.57;;;4.40;;
57800;SDS011;43627;42.728;23.256;2023-03-01T07:54:37;10.32;;;3.88;;
57800;SDS011;43627;42.728;23.256;2023-03-01T07:57:05;15.50;;;6.93;;
57800;SDS011;43627;42.728;23.256;2023-03-01T07:59:32;14.07;;;5.50;;
57800;SDS011;43627;42.728;23.256;2023-03-01T08:01:59;8.25;;;4.90;;
57800;SDS011;43627;42.728;23.256;2023-03-01T08:04:26;7.55;;;4.80;;
57800;SDS011;43627;42.728;23.256;2023-03-01T08:06:53;5.68;;;2.70;;
57800;SDS011;43627;42.728;23.256;2023-03-01T08:09:21;9.00;;;3.67;;
57800;SDS011;43627;42.728;23.256;2023-03-01T08:11:47;5.90;;;2.17;;
57800;SDS011;43627;42.728;23.256;2023-03-01T08:14:14;4.32;;;2.28;;
57800;SDS011;43627;42.728;23.256;2023-03-01T08:16:41;5.10;;;2.83;;
57800;SDS011;43627;42.728;23.256;2023-03-01T08:19:09;7.97;;;2.72;;
57800;SDS011;43627;42.728;23.256;2023-03-01T08:21:38;9.43;;;2.97;;
57800;SDS011;43627;42.728;23.256;2023-03-01T08:24:05;6.30;;;3.20;;
57800;SDS011;43627;42.728;23.256;2023-03-01T08:26:33;6.30;;;2.25;;
57800;SDS011;43627;42.728;23.256;2023-03-01T08:29:00;2.58;;;1.30;;
57800;SDS011;43627;42.728;23.256;2023-03-01T08:31:29;13.35;;;2.78;;
57800;SDS011;43627;42.728;23.256;2023-03-01T08:33:58;10.10;;;3.33;;
57800;SDS011;43627;42.728;23.256;2023-03-01T08:36:30;6.43;;;3.05;;
57800;SDS011;43627;42.728;23.256;2023-03-01T08:39:00;5.28;;;2.58;;
57800;SDS011;43627;42.728;23.256;2023-03-01T08:41:26;3.97;;;2.20;;
57800;SDS011;43627;42.728;23.256;2023-03-01T08:43:53;8.65;;;5.05;;
57800;SDS011;43627;42.728;23.256;2023-03-01T08:46:26;6.57;;;3.92;;
57800;SDS011;43627;42.728;23.256;2023-03-01T08:48:52;10.45;;;4.60;;
57800;SDS011;43627;42.728;23.256;2023-03-01T08:51:19;9.80;;;3.78;;
57800;SDS011;43627;42.728;23.256;2023-03-01T08:53:47;24.63;;;11.68;;
57800;SDS011;43627;42.728;23.256;2023-03-01T08:56:15;8.57;;;5.57;;
57800;SDS011;43627;42.728;23.256;2023-03-01T08:58:46;5.05;;;3.05;;
57800;SDS011;43627;42.728;23.256;2023-03-01T09:01:15;4.90;;;3.13;;
57800;SDS011;43627;42.728;23.256;2023-03-01T09:03:43;7.88;;;3.03;;
57800;SDS011;43627;42.728;23.256;2023-03-01T09:06:11;4.38;;;2.95;;
57800;SDS011;43627;42.728;23.256;2023-03-01T09:08:39;11.75;;;5.15;;
57800;SDS011;43627;42.728;23.256;2023-03-01T09:11:09;10.98;;;4.90;;
57800;SDS011;43627;42.728;23.256;2023-03-01T09:13:37;9.88;;;4.80;;
57800;SDS011;43627;42.728;23.256;2023-03-01T09:16:05;6.20;;;2.67;;
57800;SDS011;43627;42.728;23.256;2023-03-01T09:18:33;8.45;;;4.75;;
57800;SDS011;43627;42.728;23.256;2023-03-01T09:21:12;4.70;;;2.30;;
57800;SDS011;43627;42.728;23.256;2023-03-01T09:23:41;6.75;;;2.35;;
57800;SDS011;43627;42.728;23.256;2023-03-01T09:26:11;3.95;;;2.33;;
57800;SDS011;43627;42.728;23.256;2023-03-01T09:28:39;5.85;;;3.05;;
57800;SDS011;43627;42.728;23.256;2023-03-01T09:31:07;4.78;;;2.88;;
57800;SDS011;43627;42.728;23.256;2023-03-01T09:33:34;5.97;;;2.90;;
57800;SDS011;43627;42.728;23.256;2023-03-01T09:36:04;2.45;;;1.73;;
57800;SDS011;43627;42.728;23.256;2023-03-01T09:38:33;3.67;;;2.72;;
57800;SDS011;43627;42.728;23.256;2023-03-01T09:41:00;2.35;;;1.45;;
57800;SDS011;43627;42.728;23.256;2023-03-01T09:46:22;3.72;;;1.73;;
57800;SDS011;43627;42.728;23.256;2023-03-01T09:51:23;2.83;;;1.80;;
57800;SDS011;43627;42.728;23.256;2023-03-01T09:53:53;5.63;;;1.95;;
57800;SDS011;43627;42.728;23.256;2023-03-01T09:56:25;3.85;;;2.03;;
57800;SDS011;43627;42.728;23.256;2023-03-01T10:01:44;1.88;;;1.30;;
57800;SDS011;43627;42.728;23.256;2023-03-01T10:04:32;2.97;;;1.35;;
57800;SDS011;43627;42.728;23.256;2023-03-01T10:09:38;3.20;;;1.52;;
57800;SDS011;43627;42.728;23.256;2023-03-01T10:12:15;2.65;;;1.45;;
57800;SDS011;43627;42.728;23.256;2023-03-01T10:14:52;2.63;;;1.23;;
57800;SDS011;43627;42.728;23.256;2023-03-01T10:17:34;5.38;;;1.85;;
57800;SDS011;43627;42.728;23.256;2023-03-01T10:22:43;8.57;;;2.38;;
57800;SDS011;43627;42.728;23.256;2023-03-01T10:25:17;3.13;;;1.42;;
57800;SDS011;43627;42.728;23.256;2023-03-01T10:28:05;4.88;;;1.80;;
57800;SDS011;43627;42.728;23.256;2023-03-01T10:30:49;6.70;;;1.65;;
57800;SDS011;43627;42.728;23.256;2023-03-01T10:33:25;2.45;;;1.55;;
57800;SDS011;43627;42.728;23.256;2023-03-01T10:35:53;5.15;;;1.73;;
57800;SDS011;43627;42.728;23.256;2023-03-01T10:38:20;9.75;;;1.98;;
57800;SDS011;43627;42.728;23.256;2023-03-01T10:40:54;2.33;;;1.63;;
57800;SDS011;43627;42.728;23.256;2023-03-01T10:43:49;2.60;;;1.20;;
57800;SDS011;43627;42.728;23.256;2023-03-01T10:46:29;7.53;;;1.35;;
57800;SDS011;43627;42.728;23.256;2023-03-01T10:49:17;1.55;;;0.90;;
57800;SDS011;43627;42.728;23.256;2023-03-01T10:51:47;1.40;;;0.90;;
57800;SDS011;43627;42.728;23.256;2023-03-01T10:56:52;3.17;;;1.30;;
57800;SDS011;43627;42.728;23.256;2023-03-01T10:59:28;2.95;;;1.70;;
57800;SDS011;43627;42.728;23.256;2023-03-01T11:07:26;1.45;;;0.70;;
57800;SDS011;43627;42.728;23.256;2023-03-01T11:09:53;3.15;;;1.25;;
57800;SDS011;43627;42.728;23.256;2023-03-01T11:12:21;3.03;;;1.38;;
57800;SDS011;43627;42.728;23.256;2023-03-01T11:14:49;2.50;;;1.00;;
57800;SDS011;43627;42.728;23.256;2023-03-01T11:17:27;2.88;;;1.10;;
57800;SDS011;43627;42.728;23.256;2023-03-01T11:22:55;1.45;;;0.80;;
57800;SDS011;43627;42.728;23.256;2023-03-01T11:25:25;5.55;;;1.50;;
57800;SDS011;43627;42.728;23.256;2023-03-01T11:27:55;2.78;;;1.27;;
57800;SDS011;43627;42.728;23.256;2023-03-01T11:30:27;2.47;;;1.20;;
57800;SDS011;43627;42.728;23.256;2023-03-01T11:35:31;0.95;;;0.63;;
57800;SDS011;43627;42.728;23.256;2023-03-01T11:40:27;2.78;;;1.63;;
57800;SDS011;43627;42.728;23.256;2023-03-01T11:56:55;5.85;;;1.92;;
57800;SDS011;43627;42.728;23.256;2023-03-01T12:02:13;3.88;;;1.20;;
57800;SDS011;43627;42.728;23.256;2023-03-01T12:07:40;1.77;;;0.90;;
57800;SDS011;43627;42.728;23.256;2023-03-01T12:10:19;2.25;;;1.08;;
57800;SDS011;43627;42.728;23.256;2023-03-01T12:21:17;9.77;;;2.47;;
57800;SDS011;43627;42.728;23.256;2023-03-01T12:29:25;7.88;;;2.78;;
57800;SDS011;43627;42.728;23.256;2023-03-01T12:32:00;4.40;;;1.98;;
57800;SDS011;43627;42.728;23.256;2023-03-01T12:52:09;7.90;;;3.67;;
57800;SDS011;43627;42.728;23.256;2023-03-01T12:54:57;10.02;;;6.05;;
57800;SDS011;43627;42.728;23.256;2023-03-01T12:57:37;3.55;;;2.10;;
57800;SDS011;43627;42.728;23.256;2023-03-01T13:06:14;7.85;;;2.30;;
57800;SDS011;43627;42.728;23.256;2023-03-01T13:09:01;9.57;;;2.42;;
57800;SDS011;43627;42.728;23.256;2023-03-01T13:16:49;5.35;;;2.53;;
57800;SDS011;43627;42.728;23.256;2023-03-01T13:19:21;4.50;;;2.70;;
57800;SDS011;43627;42.728;23.256;2023-03-01T13:21:53;4.85;;;2.95;;
57800;SDS011;43627;42.728;23.256;2023-03-01T13:24:35;5.40;;;3.30;;
57800;SDS011;43627;42.728;23.256;2023-03-01T13:29:48;7.25;;;3.38;;
57800;SDS011;43627;42.728;23.256;2023-03-01T13:32:23;5.93;;;3.55;;
57800;SDS011;43627;42.728;23.256;2023-03-01T13:37:41;5.75;;;2.25;;
57800;SDS011;43627;42.728;23.256;2023-03-01T13:42:50;7.30;;;3.00;;
57800;SDS011;43627;42.728;23.256;2023-03-01T13:48:10;5.95;;;2.72;;
57800;SDS011;43627;42.728;23.256;2023-03-01T13:50:46;5.95;;;2.92;;
57800;SDS011;43627;42.728;23.256;2023-03-01T13:53:24;9.13;;;3.17;;
57800;SDS011;43627;42.728;23.256;2023-03-01T13:55:58;20.27;;;11.48;;
57800;SDS011;43627;42.728;23.256;2023-03-01T13:58:31;6.75;;;2.75;;
57800;SDS011;43627;42.728;23.256;2023-03-01T14:01:03;6.85;;;2.90;;
57800;SDS011;43627;42.728;23.256;2023-03-01T14:03:32;6.90;;;3.25;;
57800;SDS011;43627;42.728;23.256;2023-03-01T14:08:39;5.22;;;2.30;;
57800;SDS011;43627;42.728;23.256;2023-03-01T14:11:31;4.22;;;2.22;;
57800;SDS011;43627;42.728;23.256;2023-03-01T14:24:59;5.40;;;3.03;;
57800;SDS011;43627;42.728;23.256;2023-03-01T14:27:35;4.00;;;2.38;;
57800;SDS011;43627;42.728;23.256;2023-03-01T14:30:12;6.22;;;2.90;;
57800;SDS011;43627;42.728;23.256;2023-03-01T14:32:51;5.18;;;2.50;;
57800;SDS011;43627;42.728;23.256;2023-03-01T14:35:24;5.45;;;2.85;;
57800;SDS011;43627;42.728;23.256;2023-03-01T14:37:55;4.00;;;2.63;;
57800;SDS011;43627;42.728;23.256;2023-03-01T14:42:51;5.95;;;2.53;;
57800;SDS011;43627;42.728;23.256;2023-03-01T14:45:18;7.35;;;3.47;;
57800;SDS011;43627;42.728;23.256;2023-03-01T14:47:46;7.10;;;3.60;;
57800;SDS011;43627;42.728;23.256;2023-03-01T14:50:22;5.28;;;2.63;;
57800;SDS011;43627;42.728;23.256;2023-03-01T14:52:53;13.30;;;3.40;;
57800;SDS011;43627;42.728;23.256;2023-03-01T14:55:44;7.03;;;3.30;;
57800;SDS011;43627;42.728;23.256;2023-03-01T14:58:12;10.98;;;3.15;;
57800;SDS011;43627;42.728;23.256;2023-03-01T15:00:50;7.97;;;3.60;;
57800;SDS011;43627;42.728;23.256;2023-03-01T15:03:33;9.77;;;2.75;;
57800;SDS011;43627;42.728;23.256;2023-03-01T15:06:05;6.75;;;3.67;;
57800;SDS011;43627;42.728;23.256;2023-03-01T15:08:33;11.18;;;3.42;;
57800;SDS011;43627;42.728;23.256;2023-03-01T15:13:51;12.68;;;5.20;;
57800;SDS011;43627;42.728;23.256;2023-03-01T15:16:19;6.63;;;3.92;;
57800;SDS011;43627;42.728;23.256;2023-03-01T15:19:00;14.60;;;5.63;;
57800;SDS011;43627;42.728;23.256;2023-03-01T15:21:38;12.75;;;5.22;;
57800;SDS011;43627;42.728;23.256;2023-03-01T15:26:52;9.38;;;4.30;;
57800;SDS011;43627;42.728;23.256;2023-03-01T15:29:27;10.55;;;4.03;;
57800;SDS011;43627;42.728;23.256;2023-03-01T15:32:06;7.75;;;4.07;;
57800;SDS011;43627;42.728;23.256;2023-03-01T15:34:53;6.97;;;3.50;;
57800;SDS011;43627;42.728;23.256;2023-03-01T15:40:19;17.80;;;8.50;;
57800;SDS011;43627;42.728;23.256;2023-03-01T15:43:01;11.95;;;4.32;;
57800;SDS011;43627;42.728;23.256;2023-03-01T15:45:30;14.45;;;4.82;;
57800;SDS011;43627;42.728;23.256;2023-03-01T15:48:04;9.05;;;3.95;;
57800;SDS011;43627;42.728;23.256;2023-03-01T15:50:40;8.43;;;5.00;;
57800;SDS011;43627;42.728;23.256;2023-03-01T15:53:09;6.18;;;3.30;;
57800;SDS011;43627;42.728;23.256;2023-03-01T15:55:38;9.20;;;3.35;;
57800;SDS011;43627;42.728;23.256;2023-03-01T15:58:24;11.20;;;5.53;;
57800;SDS011;43627;42.728;23.256;2023-03-01T16:00:51;15.07;;;3.40;;
57800;SDS011;43627;42.728;23.256;2023-03-01T16:03:27;32.50;;;15.05;;
57800;SDS011;43627;42.728;23.256;2023-03-01T16:05:57;6.57;;;3.50;;
57800;SDS011;43627;42.728;23.256;2023-03-01T16:08:29;7.32;;;3.67;;
57800;SDS011;43627;42.728;23.256;2023-03-01T16:10:57;7.72;;;3.95;;
57800;SDS011;43627;42.728;23.256;2023-03-01T16:13:26;8.13;;;4.20;;
57800;SDS011;43627;42.728;23.256;2023-03-01T16:15:59;8.45;;;4.47;;
57800;SDS011;43627;42.728;23.256;2023-03-01T16:18:27;10.20;;;4.20;;
57800;SDS011;43627;42.728;23.256;2023-03-01T16:21:10;8.85;;;3.45;;
57800;SDS011;43627;42.728;23.256;2023-03-01T16:23:49;7.50;;;4.13;;
57800;SDS011;43627;42.728;23.256;2023-03-01T16:26:17;13.55;;;4.70;;
57800;SDS011;43627;42.728;23.256;2023-03-01T16:28:46;10.82;;;4.82;;
57800;SDS011;43627;42.728;23.256;2023-03-01T16:31:16;8.85;;;3.85;;
57800;SDS011;43627;42.728;23.256;2023-03-01T16:33:44;14.13;;;4.90;;
57800;SDS011;43627;42.728;23.256;2023-03-01T16:36:17;12.95;;;5.30;;
57800;SDS011;43627;42.728;23.256;2023-03-01T16:38:45;8.98;;;4.03;;
57800;SDS011;43627;42.728;23.256;2023-03-01T16:41:13;10.70;;;4.95;;
57800;SDS011;43627;42.728;23.256;2023-03-01T16:43:41;13.15;;;6.55;;
57800;SDS011;43627;42.728;23.256;2023-03-01T16:46:12;12.10;;;5.22;;
57800;SDS011;43627;42.728;23.256;2023-03-01T16:48:40;13.88;;;5.25;;
57800;SDS011;43627;42.728;23.256;2023-03-01T16:51:07;10.32;;;5.32;;
57800;SDS011;43627;42.728;23.256;2023-03-01T16:53:34;10.93;;;4.63;;
57800;SDS011;43627;42.728;23.256;2023-03-01T16:56:03;12.98;;;5.15;;
57800;SDS011;43627;42.728;23.256;2023-03-01T16:58:31;14.32;;;5.57;;
57800;SDS011;43627;42.728;23.256;2023-03-01T17:01:03;10.40;;;5.18;;
57800;SDS011;43627;42.728;23.256;2023-03-01T17:03:34;10.73;;;5.13;;
57800;SDS011;43627;42.728;23.256;2023-03-01T17:06:02;9.95;;;4.20;;
57800;SDS011;43627;42.728;23.256;2023-03-01T17:08:30;15.00;;;6.90;;
57800;SDS011;43627;42.728;23.256;2023-03-01T17:11:07;13.40;;;5.53;;
57800;SDS011;43627;42.728;23.256;2023-03-01T17:13:36;12.30;;;5.75;;
57800;SDS011;43627;42.728;23.256;2023-03-01T17:16:04;11.90;;;5.80;;
57800;SDS011;43627;42.728;23.256;2023-03-01T17:18:32;12.18;;;5.35;;